Creamery, PA (19430)

5:47 PM EDT on September 02, 2014 (GMT -0400)
Rockwell Terrace in Biltmore Estates | Change Station
CLOSE
Current Station
Personal Weather Station
Location: Skippack, PA
Elevation: 249 ft
Nearby Weather Stations

Elev 249 ft 40.23 °N, 75.39 °W | Updated 8 seconds ago

Partly Cloudy
Partly Cloudy
88.5 °F
Feels Like 95 °F
N
4.5
Wind Variable Wind from SW
Gusts 6.0 mph

Today
High -- | Low -- °F
--% Chance of Precip.
Yesterday
High -- | Low -- °F
Precip. -- in
6:30 AM 7:31 PM
First Quarter, 55% visible
Pressure 29.86 in
Visibility 10.0 miles
Clouds Few 4700 ft
Heat Index 95 °F
Dew Point 71 °F
Humidity 57%
Rainfall 0.00 in
Snow Depth Not available.
UV 3 out of 12
Pollen 8.60 out of 12
Air Quality Not available.
Flu Activity Not available.
METAR KPTW 022054Z AUTO 21009KT 10SM FEW047 31/20 A2987 RMK AO2 SLP111 T03110200 56019

More Conditions Fewer Conditions

Pressure 29.86 in
Visibility 10.0 miles
Clouds Few 4700 ft
Heat Index 95 °F
Dew Point 71 °F
Humidity 57%
Rainfall 0.00 in
Snow Depth Not available.
UV 3 out of 12
Pollen 8.60 out of 12
Air Quality Not available.
Flu Activity Not available.
METAR KPTW 022054Z AUTO 21009KT 10SM FEW047 31/20 A2987 RMK AO2 SLP111 T03110200 56019

More Conditions Fewer Conditions

10-Day Weather Forecast

Almanac

Astronomy

Sep. 02, 2014 Rise Set
Actual Time 6:30 AM EDT 7:31 PM EDT
Civil Twilight 6:02 AM EDT 7:59 PM EDT
Nautical Twilight 5:29 AM EDT 8:32 PM EDT
Astronomical Twilight 4:54 AM EDT 9:06 PM EDT
Moon 2:12 PM EDT No Moon Set
Length of Visible Light 13h 57m
Length of Day
13h 01m
Tomorrow will be 2m 33s shorter.
First Quarter, 55% of the Moon is Illuminated
Today
First Quarter
Sep 8
Full
Sep 15
Last Quarter
Sep 24
New
Oct 1
First Quarter

Today's Extremes

State Highs State Lows

Community

WunderPhotos

Upload Photos

1,749,782 photos uploaded!

Nearby

Snow Depth

Station Depth Elevation
No new snow has been reported.

Earthquake Activity

City Distance Mag. Time & Date
No recent earthquake activity has been reported nearby.
Minimum magnitude displayed is 2.5.

Coastal Water Temperatures

Place Temperature
No Stations Reporting

Nearby Weather Stations